createdAt,value
2022-11-03T00:01:00.262Z,7
2022-11-03T00:06:06.366Z,7
2022-11-03T00:11:12.438Z,7
2022-11-03T00:16:18.465Z,7
2022-11-03T00:21:24.597Z,7
2022-11-03T00:26:30.633Z,7
2022-11-03T00:31:38.525Z,6.9
2022-11-03T00:36:46.485Z,6.9
2022-11-03T00:41:54.476Z,6.9
2022-11-03T00:47:02.391Z,6.9
2022-11-03T00:52:10.311Z,6.9
2022-11-03T00:57:18.314Z,6.9
2022-11-03T01:02:26.296Z,6.9
2022-11-03T01:07:34.167Z,6.9
2022-11-03T01:12:42.135Z,6.9
2022-11-03T01:17:48.189Z,6.9
2022-11-03T01:22:56.104Z,6.9
2022-11-03T01:33:11.997Z,6.9
2022-11-03T01:43:27.933Z,6.9
2022-11-03T01:48:35.848Z,6.8
2022-11-03T01:53:43.799Z,6.8
2022-11-03T01:58:51.767Z,6.8
2022-11-03T02:03:59.693Z,6.8
2022-11-03T02:09:07.633Z,6.8
2022-11-03T02:14:15.600Z,6.8
2022-11-03T02:19:23.535Z,6.8
2022-11-03T02:24:31.466Z,6.8
2022-11-03T02:29:39.451Z,6.8
2022-11-03T02:34:47.371Z,6.8
2022-11-03T02:39:55.313Z,6.8
2022-11-03T02:45:03.276Z,6.8
2022-11-03T02:50:11.187Z,6.8
2022-11-03T02:55:19.138Z,6.8
2022-11-03T03:05:35.047Z,6.8
2022-11-03T03:10:42.978Z,6.8
2022-11-03T03:15:50.927Z,6.8
2022-11-03T03:20:58.925Z,6.8
2022-11-03T03:26:06.813Z,6.8
2022-11-03T03:31:14.782Z,6.8
2022-11-03T03:36:22.774Z,6.8
2022-11-03T03:46:38.619Z,6.8
2022-11-03T03:51:46.595Z,6.8
2022-11-03T03:56:54.510Z,6.8
2022-11-03T04:02:02.592Z,6.8
2022-11-03T04:07:10.413Z,6.8
2022-11-03T04:12:18.376Z,6.8
2022-11-03T04:22:34.266Z,6.8
2022-11-03T04:27:40.297Z,6.8
2022-11-03T04:32:46.389Z,6.8
2022-11-03T04:37:52.466Z,6.8
2022-11-03T04:43:00.373Z,6.8
2022-11-03T04:48:06.457Z,6.8
2022-11-03T04:53:12.545Z,6.8
2022-11-03T04:58:20.442Z,6.8
2022-11-03T05:03:28.397Z,6.8
2022-11-03T05:08:36.375Z,6.8
2022-11-03T05:13:44.284Z,6.8
2022-11-03T05:18:52.247Z,6.8
2022-11-03T05:24:00.209Z,6.8
2022-11-03T05:29:08.135Z,6.8
2022-11-03T05:34:16.124Z,6.8
2022-11-03T05:44:31.994Z,6.7
2022-11-03T05:49:39.944Z,6.7
2022-11-03T05:54:47.886Z,6.7
2022-11-03T05:59:55.844Z,6.7
2022-11-03T06:05:03.762Z,6.7
2022-11-03T06:10:11.731Z,6.8
2022-11-03T06:15:19.743Z,6.8
2022-11-03T06:20:27.604Z,6.8
2022-11-03T06:25:35.556Z,6.8
2022-11-03T06:30:43.555Z,6.8
2022-11-03T06:35:51.458Z,6.8
2022-11-03T06:40:59.612Z,6.8
2022-11-03T06:46:07.364Z,6.8
2022-11-03T06:51:15.296Z,6.8
2022-11-03T06:56:23.239Z,6.8
2022-11-03T07:06:39.144Z,6.8
2022-11-03T07:11:47.087Z,6.8
2022-11-03T07:16:55.032Z,6.8
2022-11-03T07:22:03.027Z,6.8
2022-11-03T07:32:18.889Z,6.8
2022-11-03T07:37:26.840Z,6.8
2022-11-03T07:42:34.775Z,6.8
2022-11-03T07:47:42.719Z,6.8
2022-11-03T07:52:50.674Z,6.8
2022-11-03T07:57:58.605Z,6.8
2022-11-03T08:03:06.900Z,6.8
2022-11-03T08:08:14.508Z,6.8
2022-11-03T08:13:22.441Z,6.9
2022-11-03T08:18:30.379Z,6.8
2022-11-03T08:23:40.885Z,6.9
2022-11-03T08:33:54.233Z,6.9
2022-11-03T08:39:00.321Z,6.9
2022-11-03T08:44:08.252Z,6.9
2022-11-03T08:49:14.317Z,7
2022-11-03T08:54:20.384Z,7
2022-11-03T08:59:28.304Z,7
2022-11-03T09:04:36.252Z,7.1
2022-11-03T09:14:52.162Z,7.1
2022-11-03T09:20:00.179Z,7.1
2022-11-03T09:25:08.060Z,7.1
2022-11-03T09:30:15.988Z,7.1
2022-11-03T09:35:23.936Z,7.2
2022-11-03T09:40:31.915Z,7.2
2022-11-03T09:45:39.846Z,7.2
2022-11-03T09:50:47.783Z,7.3
2022-11-03T09:55:55.737Z,7.3
2022-11-03T10:01:03.738Z,7.3
2022-11-03T10:06:14.427Z,7.3
2022-11-03T10:11:19.598Z,7.3
2022-11-03T10:21:35.461Z,7.4
2022-11-03T10:26:43.418Z,7.4
2022-11-03T10:31:51.332Z,7.4
2022-11-03T10:36:59.293Z,7.4
2022-11-03T10:42:07.263Z,7.4
2022-11-03T10:47:15.181Z,7.4
2022-11-03T10:52:23.255Z,7.4
2022-11-03T10:57:31.107Z,7.5
2022-11-03T11:02:39.080Z,7.5
2022-11-03T11:12:54.956Z,7.6
2022-11-03T11:18:02.849Z,7.5
2022-11-03T11:23:11.051Z,7.6
2022-11-03T11:28:18.795Z,7.6
2022-11-03T11:33:26.720Z,7.6
2022-11-03T11:38:34.660Z,7.7
2022-11-03T11:43:42.634Z,7.7
2022-11-03T11:48:50.546Z,7.7
2022-11-03T11:59:06.454Z,7.7
2022-11-03T12:04:12.654Z,7.7
2022-11-03T12:09:20.442Z,7.7
2022-11-03T12:14:28.415Z,7.7
2022-11-03T12:19:36.341Z,7.7
2022-11-03T12:24:44.277Z,7.7
2022-11-03T12:29:52.266Z,7.7
2022-11-03T12:35:00.220Z,7.7
2022-11-03T12:40:08.111Z,7.8
2022-11-03T12:45:16.202Z,7.8
2022-11-03T12:50:24.001Z,7.8
2022-11-03T12:55:31.961Z,7.8
2022-11-03T13:00:40.001Z,7.8
2022-11-03T13:05:47.854Z,7.8
2022-11-03T13:10:55.821Z,7.8
2022-11-03T13:16:03.756Z,7.8
2022-11-03T13:21:11.700Z,7.8
2022-11-03T13:36:35.561Z,7.8
2022-11-03T13:41:42.719Z,7.8
2022-11-03T13:46:48.789Z,7.7
2022-11-03T13:51:56.783Z,7.7
2022-11-03T14:07:20.580Z,7.7
2022-11-03T14:12:28.522Z,7.7
2022-11-03T14:17:36.476Z,7.7
2022-11-03T14:22:44.451Z,7.8
2022-11-03T14:27:52.380Z,7.8
2022-11-03T14:38:08.283Z,7.8
2022-11-03T14:53:30.216Z,7.8
2022-11-03T14:58:36.262Z,7.8
2022-11-03T15:03:42.318Z,7.8
2022-11-03T15:08:52.102Z,7.8
2022-11-03T15:19:04.259Z,7.7
2022-11-03T15:39:32.312Z,7.7
2022-11-03T15:44:38.368Z,7.7
2022-11-03T15:49:44.417Z,7.7
2022-11-03T15:54:50.498Z,7.7
2022-11-03T15:59:57.894Z,7.7
2022-11-03T16:05:02.624Z,7.7
2022-11-03T16:10:08.702Z,7.7
2022-11-03T16:20:23.797Z,7.7
2022-11-03T16:25:29.897Z,7.7
2022-11-03T16:30:35.927Z,7.7
2022-11-03T16:35:41.997Z,7.7
2022-11-03T16:45:56.217Z,7.7
2022-11-03T16:51:02.066Z,7.7
2022-11-03T16:56:08.107Z,7.7
2022-11-03T17:01:14.332Z,7.7
2022-11-03T17:06:20.249Z,7.7
2022-11-03T17:11:26.306Z,7.7
2022-11-03T17:16:32.427Z,7.7
2022-11-03T17:21:38.435Z,7.7
2022-11-03T17:26:46.394Z,7.7
2022-11-03T17:31:54.345Z,7.7
2022-11-03T17:37:02.265Z,7.7
2022-11-03T17:42:10.211Z,7.7
2022-11-03T17:47:18.207Z,7.7
2022-11-03T17:52:28.222Z,7.7
2022-11-03T18:02:42.132Z,7.6
2022-11-03T18:07:48.080Z,7.6
2022-11-03T18:12:56.026Z,7.6
2022-11-03T18:18:04.145Z,7.6
2022-11-03T18:28:19.864Z,7.6
2022-11-03T18:33:27.839Z,7.6
2022-11-03T18:38:33.864Z,7.6
2022-11-03T18:43:41.805Z,7.6
2022-11-03T18:48:49.780Z,7.6
2022-11-03T18:53:57.714Z,7.6
2022-11-03T18:59:05.634Z,7.6
2022-11-03T19:04:13.610Z,7.6
2022-11-03T19:09:21.562Z,7.6
2022-11-03T19:14:29.480Z,7.6
2022-11-03T19:24:45.376Z,7.6
2022-11-03T19:29:53.340Z,7.6
2022-11-03T19:35:01.299Z,7.7
2022-11-03T19:40:09.535Z,7.7
2022-11-03T19:45:17.188Z,7.7
2022-11-03T19:50:25.132Z,7.7
2022-11-03T19:55:33.049Z,7.6
2022-11-03T20:05:49.917Z,7.6
2022-11-03T20:10:56.926Z,7.6
2022-11-03T20:16:04.864Z,7.6
2022-11-03T20:21:12.819Z,7.6
2022-11-03T20:26:20.719Z,7.6
2022-11-03T20:36:36.651Z,7.6
2022-11-03T20:41:44.595Z,7.6
2022-11-03T20:46:52.530Z,7.6
2022-11-03T20:52:00.495Z,7.6
2022-11-03T20:57:08.404Z,7.6
2022-11-03T21:02:16.443Z,7.6
2022-11-03T21:07:24.323Z,7.6
2022-11-03T21:12:32.251Z,7.6
2022-11-03T21:17:40.192Z,7.6
2022-11-03T21:22:52.971Z,7.6
2022-11-03T21:27:56.089Z,7.6
2022-11-03T21:33:04.045Z,7.6
2022-11-03T21:38:12.025Z,7.6
2022-11-03T21:43:19.944Z,7.6
2022-11-03T21:48:27.881Z,7.6
2022-11-03T21:53:35.844Z,7.6
2022-11-03T21:58:43.794Z,7.6
2022-11-03T22:08:59.693Z,7.6
2022-11-03T22:14:07.612Z,7.6
2022-11-03T22:19:15.550Z,7.6
2022-11-03T22:24:23.535Z,7.6
2022-11-03T22:34:39.395Z,7.6
2022-11-03T22:39:47.412Z,7.6
2022-11-03T22:44:55.300Z,7.6
2022-11-03T22:50:03.264Z,7.6
2022-11-03T22:55:11.345Z,7.6
2022-11-03T23:00:19.133Z,7.6
2022-11-03T23:05:27.087Z,7.6
2022-11-03T23:10:35.051Z,7.6
2022-11-03T23:15:42.974Z,7.6
2022-11-03T23:20:50.921Z,7.6
2022-11-03T23:25:58.906Z,7.6
2022-11-03T23:31:06.816Z,7.6
2022-11-03T23:36:14.768Z,7.6
2022-11-03T23:41:22.731Z,7.6
2022-11-03T23:46:30.657Z,7.6
2022-11-03T23:51:38.598Z,7.6
2022-11-03T23:56:46.557Z,7.6
